Central Virginia Flyers


Central Virginia Flyers is a 10 member flying club based in Richmond, VA at Hanover County Airport (KOFP). We own N787AT, a 1977 Cessna 172 with 180hp conversion. If you are interested in membership, please contact Brenton at brenton@cvflyers.org.


Aviation Digital Data Service (ADDS)

Output produced by METARs form (1334 UTC 01 September 2014)
found at http://aviationweather.gov/adds/metars/
 
KOFP 011254Z AUTO 21006KT 10SM SCT120 26/23 A3007 RMK AO2 SLP178 T02560228
KRIC 011254Z 24006KT 10SM FEW015 SCT055 BKN140 OVC300 27/23 A3006 RMK AO2 SLP181 T02670228 $
KRIC 011133Z 0112/0212 20003KT P6SM BKN090 BKN180 
     FM011400 22010KT P6SM SCT040 SCT150 
     FM012300 22005KT P6SM SCT120